Time;durP1;ratioP1;P1;durP2;ratioP2;P2;SDS_P1;SDS_P2;PMS_P1;PMS_P2;Temp;Humidity;BMP_temperature;BMP_pressure;BME280_temperature;BME280_humidity;BME280_pressure;Samples;Min_cycle;Max_cycle;Signal;HPM_P1;HPM_P2
2023/08/22 00:01:11;;;;;;;;;;;21.30;54.90;;;;;;5032018;28;19921;-67
2023/08/22 00:03:36;;;;;;;;;;;21.30;54.90;;;;;;5034232;28;19909;-66
2023/08/22 00:06:02;;;;;;;;;;;21.30;54.90;;;;;;5033498;28;19917;-68
2023/08/22 00:08:27;;;;;;;;;;;21.20;55.00;;;;;;5032218;28;19913;-67
2023/08/22 00:10:54;;;;;;;;;;;21.20;55.20;;;;;;5033068;28;19924;-66
2023/08/22 00:13:19;;;;;;;;;;;21.10;55.30;;;;;;5032341;28;19913;-67
2023/08/22 00:15:46;;;;;;;;;;;21.00;55.50;;;;;;5033106;28;19917;-67
2023/08/22 00:18:11;;;;;;;;;;;21.00;55.40;;;;;;5033262;28;20380;-67
2023/08/22 00:20:37;;;;;;;;;;;20.90;55.70;;;;;;5033434;28;19924;-66
2023/08/22 00:23:04;;;;;;;;;;;20.90;55.90;;;;;;5033757;28;20000;-66
2023/08/22 00:25:29;;;;;;;;;;;20.90;55.80;;;;;;5033848;28;20279;-67
2023/08/22 00:27:55;;;;;;;;;;;20.90;56.00;;;;;;5031040;28;20011;-66
2023/08/22 00:30:20;;;;;;;;;;;20.90;56.00;;;;;;5031579;28;19960;-67
2023/08/22 00:32:46;;;;;;;;;;;20.80;56.10;;;;;;5034123;28;20230;-74
2023/08/22 00:35:11;;;;;;;;;;;20.80;56.30;;;;;;5032530;28;19917;-72
2023/08/22 00:37:37;;;;;;;;;;;20.80;56.40;;;;;;5032275;28;19909;-73
2023/08/22 00:40:03;;;;;;;;;;;20.80;56.40;;;;;;5032817;28;19917;-72
2023/08/22 00:42:28;;;;;;;;;;;20.80;56.70;;;;;;5032727;28;19917;-73
2023/08/22 00:44:54;;;;;;;;;;;20.80;56.80;;;;;;5031694;28;19975;-75
2023/08/22 00:47:21;;;;;;;;;;;20.80;56.80;;;;;;5033989;28;20284;-74
2023/08/22 00:49:46;;;;;;;;;;;20.80;57.00;;;;;;5032157;28;20382;-74
2023/08/22 00:52:12;;;;;;;;;;;20.80;56.90;;;;;;5031123;28;19921;-72
2023/08/22 00:54:38;;;;;;;;;;;20.80;57.00;;;;;;5028912;28;19920;-73
2023/08/22 00:57:03;;;;;;;;;;;20.80;56.90;;;;;;5031433;28;19999;-74
2023/08/22 00:59:29;;;;;;;;;;;20.80;56.90;;;;;;5032763;28;19917;-75
2023/08/22 01:01:55;;;;;;;;;;;20.90;56.90;;;;;;5027474;28;20341;-73
2023/08/22 01:04:20;;;;;;;;;;;20.80;56.80;;;;;;5032936;28;19983;-75
2023/08/22 01:06:52;;;;;;;;;;;20.80;56.80;;;;;;5031347;28;19913;-74
2023/08/22 01:09:32;;;;;;;;;;;20.80;56.80;;;;;;5031775;28;19913;-74
2023/08/22 01:12:08;;;;;;;;;;;20.80;56.80;;;;;;5033107;28;19913;-74
2023/08/22 01:14:36;;;;;;;;;;;20.80;56.80;;;;;;5033090;28;19920;-74
2023/08/22 01:17:02;;;;;;;;;;;20.80;56.80;;;;;;5033111;28;19909;-74
2023/08/22 01:19:28;;;;;;;;;;;20.80;56.90;;;;;;5032955;28;19913;-73
2023/08/22 01:21:53;;;;;;;;;;;20.80;57.00;;;;;;5033228;28;19935;-74
2023/08/22 01:24:19;;;;;;;;;;;20.80;57.20;;;;;;5021290;28;19913;-75
2023/08/22 01:26:45;;;;;;;;;;;20.70;57.10;;;;;;5021868;28;19944;-74
2023/08/22 01:29:13;;;;;;;;;;;20.70;57.20;;;;;;5032407;28;19917;-72
2023/08/22 01:31:56;;;;;;;;;;;20.70;57.20;;;;;;5032177;28;19909;-74
2023/08/22 01:34:26;;;;;;;;;;;20.70;57.30;;;;;;5032694;28;20396;-72
2023/08/22 01:36:54;;;;;;;;;;;20.60;57.30;;;;;;5032683;28;20003;-74
2023/08/22 01:39:22;;;;;;;;;;;20.60;57.40;;;;;;5032552;28;19909;-74
2023/08/22 01:41:48;;;;;;;;;;;20.50;57.40;;;;;;5032668;28;19958;-66
2023/08/22 01:44:14;;;;;;;;;;;20.50;57.40;;;;;;5032364;28;20043;-66
2023/08/22 01:46:39;;;;;;;;;;;20.50;57.70;;;;;;5032582;28;20372;-66
2023/08/22 01:49:05;;;;;;;;;;;20.50;57.70;;;;;;5032563;28;19960;-67
2023/08/22 01:51:30;;;;;;;;;;;20.50;57.70;;;;;;5032689;28;19917;-67
2023/08/22 01:53:55;;;;;;;;;;;20.50;57.80;;;;;;5032781;28;20002;-66
2023/08/22 01:56:21;;;;;;;;;;;20.50;57.80;;;;;;5032413;28;19913;-66
2023/08/22 01:58:46;;;;;;;;;;;20.50;57.90;;;;;;5031992;28;20380;-67
2023/08/22 02:01:12;;;;;;;;;;;20.40;57.90;;;;;;5030169;28;20000;-66
2023/08/22 02:03:38;;;;;;;;;;;20.40;57.90;;;;;;5032391;28;20264;-67
2023/08/22 02:06:04;;;;;;;;;;;20.50;57.90;;;;;;5032286;28;19956;-67
2023/08/22 02:08:29;;;;;;;;;;;20.50;57.90;;;;;;5029068;28;20443;-66
2023/08/22 02:10:55;;;;;;;;;;;20.50;58.10;;;;;;5028374;28;19983;-67
2023/08/22 02:13:20;;;;;;;;;;;20.50;58.20;;;;;;5010949;28;20242;-67
2023/08/22 02:15:46;;;;;;;;;;;20.50;58.20;;;;;;5029568;28;20043;-67
2023/08/22 02:18:11;;;;;;;;;;;20.50;58.10;;;;;;5031191;28;19917;-74
2023/08/22 02:20:37;;;;;;;;;;;20.50;58.10;;;;;;5032154;28;19921;-74
2023/08/22 02:23:02;;;;;;;;;;;20.50;58.20;;;;;;5030565;28;19921;-73
2023/08/22 02:25:28;;;;;;;;;;;20.50;58.30;;;;;;5031740;28;19909;-73
2023/08/22 02:27:54;;;;;;;;;;;20.50;58.40;;;;;;5031901;28;20368;-74
2023/08/22 02:30:19;;;;;;;;;;;20.50;58.50;;;;;;5031922;28;19910;-74
2023/08/22 02:32:45;;;;;;;;;;;20.50;58.40;;;;;;5029539;28;19924;-74
2023/08/22 02:35:10;;;;;;;;;;;20.50;58.50;;;;;;5029444;28;19913;-73
2023/08/22 02:37:35;;;;;;;;;;;20.50;58.50;;;;;;5030996;28;19917;-72
2023/08/22 02:40:03;;;;;;;;;;;20.50;58.60;;;;;;5029338;28;19943;-74
2023/08/22 02:42:29;;;;;;;;;;;20.50;58.70;;;;;;5030014;28;20019;-73
2023/08/22 02:44:55;;;;;;;;;;;20.50;58.80;;;;;;5031578;28;19960;-73
2023/08/22 02:47:20;;;;;;;;;;;20.50;58.90;;;;;;5031583;28;20403;-74
2023/08/22 02:49:46;;;;;;;;;;;20.50;58.90;;;;;;5030791;28;20411;-73
2023/08/22 02:52:11;;;;;;;;;;;20.50;58.80;;;;;;5030187;28;19924;-73
2023/08/22 02:54:36;;;;;;;;;;;20.50;58.70;;;;;;5031469;28;19917;-74
2023/08/22 02:57:02;;;;;;;;;;;20.50;58.70;;;;;;5031505;28;20258;-72
2023/08/22 02:59:28;;;;;;;;;;;20.40;58.80;;;;;;5030881;28;19913;-73
2023/08/22 03:01:53;;;;;;;;;;;20.50;58.80;;;;;;5031362;28;20012;-75
2023/08/22 03:04:18;;;;;;;;;;;20.50;58.90;;;;;;5030157;28;19909;-75
2023/08/22 03:06:44;;;;;;;;;;;20.50;59.00;;;;;;5031496;28;19913;-73
2023/08/22 03:09:09;;;;;;;;;;;20.50;59.00;;;;;;5030742;28;19940;-74
2023/08/22 03:11:35;;;;;;;;;;;20.60;59.00;;;;;;5031312;28;20380;-74
2023/08/22 03:14:00;;;;;;;;;;;20.60;59.00;;;;;;5028830;28;20345;-73
2023/08/22 03:16:26;;;;;;;;;;;20.60;58.90;;;;;;5031208;28;20280;-71
2023/08/22 03:18:51;;;;;;;;;;;20.70;58.80;;;;;;5031285;28;19923;-74
2023/08/22 03:21:16;;;;;;;;;;;20.60;58.80;;;;;;5031086;28;19920;-73
2023/08/22 03:23:42;;;;;;;;;;;20.60;58.80;;;;;;5031453;28;19924;-73
2023/08/22 03:26:10;;;;;;;;;;;20.60;58.90;;;;;;5031104;28;19963;-74
2023/08/22 03:28:36;;;;;;;;;;;20.60;58.80;;;;;;5031567;28;19917;-74
2023/08/22 03:31:02;;;;;;;;;;;20.60;58.80;;;;;;5031262;28;19916;-74
2023/08/22 03:33:28;;;;;;;;;;;20.50;58.80;;;;;;5031375;28;20003;-74
2023/08/22 03:35:54;;;;;;;;;;;20.50;58.80;;;;;;5030175;28;20395;-74
2023/08/22 03:38:19;;;;;;;;;;;20.50;58.80;;;;;;5029846;28;19923;-75
2023/08/22 03:40:46;;;;;;;;;;;20.50;58.90;;;;;;5031013;28;20108;-74
2023/08/22 03:43:11;;;;;;;;;;;20.50;58.90;;;;;;5031258;28;19918;-74
2023/08/22 03:45:37;;;;;;;;;;;20.50;58.90;;;;;;5029380;28;19920;-74
2023/08/22 03:48:04;;;;;;;;;;;20.60;59.00;;;;;;5031095;28;20361;-73
2023/08/22 03:50:30;;;;;;;;;;;20.60;59.10;;;;;;5031122;28;20347;-74
2023/08/22 03:52:55;;;;;;;;;;;20.60;59.20;;;;;;5031595;28;19960;-75
2023/08/22 03:55:21;;;;;;;;;;;20.60;59.20;;;;;;5032644;28;20335;-74
2023/08/22 03:57:46;;;;;;;;;;;20.70;59.30;;;;;;5034832;28;19917;-74
2023/08/22 04:00:12;;;;;;;;;;;20.70;59.40;;;;;;5034410;28;19963;-73
2023/08/22 04:02:37;;;;;;;;;;;20.70;59.40;;;;;;5034789;28;19970;-67
2023/08/22 04:05:03;;;;;;;;;;;20.70;59.50;;;;;;5034742;28;19909;-68
2023/08/22 04:07:28;;;;;;;;;;;20.70;59.60;;;;;;5034590;28;19939;-67
2023/08/22 04:09:54;;;;;;;;;;;20.70;59.60;;;;;;5034410;28;20381;-67
2023/08/22 04:12:19;;;;;;;;;;;20.80;59.50;;;;;;5034089;28;19924;-67
2023/08/22 04:14:45;;;;;;;;;;;20.80;59.50;;;;;;5034277;28;19909;-68
2023/08/22 04:17:10;;;;;;;;;;;20.80;59.50;;;;;;5034291;28;19918;-69
2023/08/22 04:19:36;;;;;;;;;;;20.80;59.50;;;;;;5034090;28;20351;-69
2023/08/22 04:22:01;;;;;;;;;;;20.80;59.60;;;;;;5034488;28;19913;-68
2023/08/22 04:24:27;;;;;;;;;;;20.80;59.60;;;;;;5031665;28;20308;-68
2023/08/22 04:26:52;;;;;;;;;;;20.80;59.60;;;;;;5034203;28;20280;-68
2023/08/22 04:29:18;;;;;;;;;;;20.90;59.60;;;;;;5033976;28;19916;-67
2023/08/22 04:31:43;;;;;;;;;;;20.90;59.60;;;;;;5030730;28;20396;-68
2023/08/22 04:34:08;;;;;;;;;;;20.90;59.70;;;;;;5034384;28;20379;-70
2023/08/22 04:36:34;;;;;;;;;;;20.90;59.80;;;;;;5034027;28;20322;-68
2023/08/22 04:38:59;;;;;;;;;;;20.90;59.70;;;;;;5032975;28;19972;-67
2023/08/22 04:41:25;;;;;;;;;;;20.90;59.80;;;;;;5031866;28;19917;-68
2023/08/22 04:43:50;;;;;;;;;;;21.00;59.80;;;;;;5034238;28;20007;-67
2023/08/22 04:46:16;;;;;;;;;;;21.00;59.90;;;;;;5032770;28;19980;-67
2023/08/22 04:48:41;;;;;;;;;;;21.00;59.90;;;;;;5031608;28;19936;-68
2023/08/22 04:51:07;;;;;;;;;;;21.10;59.90;;;;;;5032674;28;19917;-67
2023/08/22 04:53:32;;;;;;;;;;;21.10;60.00;;;;;;5033826;28;19927;-68
2023/08/22 04:55:57;;;;;;;;;;;21.10;60.00;;;;;;5033727;28;19909;-68
2023/08/22 04:58:23;;;;;;;;;;;21.10;60.10;;;;;;5030073;28;19917;-68
2023/08/22 05:00:48;;;;;;;;;;;21.20;60.20;;;;;;5032311;28;19917;-67
2023/08/22 05:03:19;;;;;;;;;;;21.20;60.20;;;;;;5033671;28;20315;-72
2023/08/22 05:05:45;;;;;;;;;;;21.20;60.20;;;;;;5033752;28;19917;-72
2023/08/22 05:08:10;;;;;;;;;;;21.30;60.10;;;;;;5033048;28;19924;-74
2023/08/22 05:10:35;;;;;;;;;;;21.30;60.10;;;;;;5033082;28;19916;-68
2023/08/22 05:13:01;;;;;;;;;;;21.40;60.10;;;;;;5031969;28;20353;-67
2023/08/22 05:15:27;;;;;;;;;;;21.40;60.00;;;;;;5030620;28;19914;-69
2023/08/22 05:17:52;;;;;;;;;;;21.50;60.00;;;;;;5013787;28;20431;-69
2023/08/22 05:20:17;;;;;;;;;;;21.50;60.00;;;;;;5013295;28;20004;-69
2023/08/22 05:22:43;;;;;;;;;;;21.60;60.00;;;;;;5031067;28;19931;-67
2023/08/22 05:25:09;;;;;;;;;;;21.70;60.00;;;;;;5032810;28;19913;-68
2023/08/22 05:27:34;;;;;;;;;;;21.70;60.00;;;;;;5032997;28;19921;-67
2023/08/22 05:29:59;;;;;;;;;;;21.80;59.90;;;;;;5032947;28;20007;-68
2023/08/22 05:32:25;;;;;;;;;;;21.80;59.90;;;;;;5032787;28;19917;-68
2023/08/22 05:34:50;;;;;;;;;;;21.90;59.90;;;;;;5033119;28;19913;-68
2023/08/22 05:37:16;;;;;;;;;;;21.90;59.90;;;;;;5031682;28;19917;-68
2023/08/22 05:39:41;;;;;;;;;;;22.00;59.90;;;;;;5032752;28;19963;-67
2023/08/22 05:42:07;;;;;;;;;;;22.10;59.90;;;;;;5015537;28;19940;-68
2023/08/22 05:44:32;;;;;;;;;;;22.20;59.90;;;;;;5018592;28;20339;-68
2023/08/22 05:46:58;;;;;;;;;;;22.30;59.90;;;;;;5031848;28;20387;-68
2023/08/22 05:49:23;;;;;;;;;;;22.30;59.90;;;;;;5032069;28;19960;-68
2023/08/22 05:51:49;;;;;;;;;;;22.40;59.90;;;;;;5032841;28;19954;-68
2023/08/22 05:54:14;;;;;;;;;;;22.50;59.90;;;;;;5031248;28;20440;-68
2023/08/22 05:56:40;;;;;;;;;;;22.70;60.00;;;;;;5032534;28;20368;-67
2023/08/22 05:59:05;;;;;;;;;;;22.80;59.90;;;;;;5032378;28;19956;-68
2023/08/22 06:01:31;;;;;;;;;;;23.00;60.00;;;;;;5032190;28;19920;-67
2023/08/22 06:03:57;;;;;;;;;;;23.10;60.00;;;;;;5032820;28;19964;-68
2023/08/22 06:06:24;;;;;;;;;;;23.20;60.00;;;;;;5032094;28;21393;-67
2023/08/22 06:08:49;;;;;;;;;;;23.30;59.90;;;;;;5032618;28;19995;-68
2023/08/22 06:11:15;;;;;;;;;;;23.50;60.20;;;;;;5032282;28;19913;-68
2023/08/22 06:13:40;;;;;;;;;;;23.70;60.20;;;;;;5032449;28;20349;-68
2023/08/22 06:16:06;;;;;;;;;;;23.80;59.80;;;;;;5031788;28;19917;-66
2023/08/22 06:18:31;;;;;;;;;;;23.90;59.50;;;;;;5032231;28;19920;-68
2023/08/22 06:20:57;;;;;;;;;;;24.00;59.20;;;;;;5032345;28;19924;-67
2023/08/22 06:23:23;;;;;;;;;;;24.00;58.90;;;;;;5032242;28;19975;-68
2023/08/22 06:25:48;;;;;;;;;;;24.10;58.80;;;;;;5031900;28;20285;-67
2023/08/22 06:28:14;;;;;;;;;;;24.20;59.80;;;;;;5032259;28;19966;-68
2023/08/22 06:30:39;;;;;;;;;;;24.80;61.70;;;;;;5030471;28;19913;-68
2023/08/22 06:33:04;;;;;;;;;;;25.70;62.50;;;;;;5031738;28;20407;-68
2023/08/22 06:35:30;;;;;;;;;;;26.60;62.60;;;;;;5028927;28;20403;-68
2023/08/22 06:37:55;;;;;;;;;;;27.50;61.30;;;;;;5025894;28;19913;-68
2023/08/22 06:40:22;;;;;;;;;;;28.40;59.90;;;;;;5031751;28;19917;-68
2023/08/22 06:42:48;;;;;;;;;;;29.30;58.10;;;;;;5030828;28;19913;-67
2023/08/22 06:45:14;;;;;;;;;;;30.10;56.50;;;;;;5031628;28;20368;-69
2023/08/22 06:47:39;;;;;;;;;;;30.90;54.30;;;;;;5031935;28;19952;-68
2023/08/22 06:50:05;;;;;;;;;;;31.60;52.40;;;;;;5031656;28;20408;-68
2023/08/22 06:52:30;;;;;;;;;;;32.20;51.30;;;;;;5031837;28;19924;-68
2023/08/22 06:54:56;;;;;;;;;;;33.00;49.20;;;;;;5031666;28;20574;-68
2023/08/22 06:57:21;;;;;;;;;;;33.60;47.90;;;;;;5031674;28;19913;-69
2023/08/22 06:59:47;;;;;;;;;;;34.30;46.60;;;;;;5031572;28;19921;-69
2023/08/22 07:02:12;;;;;;;;;;;34.90;45.20;;;;;;5030204;28;20284;-69
2023/08/22 07:04:38;;;;;;;;;;;35.50;43.90;;;;;;5028944;28;19921;-67
2023/08/22 07:07:03;;;;;;;;;;;36.00;41.60;;;;;;5031826;28;19909;-69
2023/08/22 07:09:29;;;;;;;;;;;36.50;40.50;;;;;;5028151;28;19952;-68
2023/08/22 07:11:54;;;;;;;;;;;37.10;39.60;;;;;;5030722;28;19921;-69
2023/08/22 07:14:20;;;;;;;;;;;37.70;38.90;;;;;;5029652;28;21057;-68
2023/08/22 07:16:46;;;;;;;;;;;38.10;37.80;;;;;;5029971;28;19913;-68
2023/08/22 07:19:11;;;;;;;;;;;38.50;36.90;;;;;;5031643;28;19913;-68
2023/08/22 07:21:37;;;;;;;;;;;38.80;34.90;;;;;;5030465;28;19917;-67
2023/08/22 07:24:03;;;;;;;;;;;39.20;34.50;;;;;;5028885;28;19917;-68
2023/08/22 07:26:28;;;;;;;;;;;39.60;34.00;;;;;;5031693;28;20424;-69
2023/08/22 07:28:54;;;;;;;;;;;40.10;33.10;;;;;;5032925;28;20039;-68
2023/08/22 07:31:19;;;;;;;;;;;40.50;32.70;;;;;;5034682;28;20321;-75
2023/08/22 07:33:45;;;;;;;;;;;40.90;31.90;;;;;;5033317;28;19956;-71
2023/08/22 07:36:17;;;;;;;;;;;41.40;31.40;;;;;;5034368;28;19920;-77
2023/08/22 07:38:42;;;;;;;;;;;41.90;30.90;;;;;;5034814;28;19986;-75
2023/08/22 07:41:10;;;;;;;;;;;42.40;30.50;;;;;;5033523;28;19921;-74
2023/08/22 07:43:35;;;;;;;;;;;42.80;29.50;;;;;;5034506;28;20300;-75
2023/08/22 07:46:01;;;;;;;;;;;43.20;28.90;;;;;;5034960;28;19917;-76
2023/08/22 07:48:26;;;;;;;;;;;43.40;28.20;;;;;;5034077;28;20408;-76
2023/08/22 07:50:54;;;;;;;;;;;43.50;27.50;;;;;;5032756;28;19928;-75
2023/08/22 07:53:19;;;;;;;;;;;43.70;27.50;;;;;;5034802;28;19956;-73
2023/08/22 07:55:48;;;;;;;;;;;43.80;26.90;;;;;;5028031;28;20026;-75
2023/08/22 07:58:15;;;;;;;;;;;44.10;26.80;;;;;;5034804;28;19913;-76
2023/08/22 08:00:41;;;;;;;;;;;44.50;26.10;;;;;;5033087;28;20371;-76
2023/08/22 08:03:06;;;;;;;;;;;44.70;25.70;;;;;;5033214;28;19913;-76
2023/08/22 08:05:32;;;;;;;;;;;44.90;25.30;;;;;;5034434;28;20353;-77
2023/08/22 08:07:57;;;;;;;;;;;45.00;25.00;;;;;;5034865;28;20423;-76
2023/08/22 08:10:23;;;;;;;;;;;44.80;24.40;;;;;;5032863;28;20389;-76
2023/08/22 08:12:48;;;;;;;;;;;44.70;24.20;;;;;;5033706;28;19913;-76
2023/08/22 08:15:14;;;;;;;;;;;44.80;24.10;;;;;;5032991;28;20356;-77
2023/08/22 08:17:39;;;;;;;;;;;44.90;23.90;;;;;;5033580;28;19913;-77
2023/08/22 08:20:05;;;;;;;;;;;44.90;23.30;;;;;;5033875;28;20001;-78
2023/08/22 08:22:30;;;;;;;;;;;44.80;23.30;;;;;;5032432;28;19924;-77
2023/08/22 08:24:56;;;;;;;;;;;44.70;22.60;;;;;;5034231;28;19917;-76
2023/08/22 08:27:21;;;;;;;;;;;44.30;22.80;;;;;;5033736;28;19914;-76
2023/08/22 08:29:47;;;;;;;;;;;43.90;22.50;;;;;;5033928;28;19913;-77
2023/08/22 08:32:12;;;;;;;;;;;43.30;22.40;;;;;;5032677;28;20008;-77
2023/08/22 08:34:38;;;;;;;;;;;42.80;23.30;;;;;;5033930;28;19920;-75
2023/08/22 08:37:04;;;;;;;;;;;42.60;23.80;;;;;;5033389;28;20418;-76
2023/08/22 08:39:29;;;;;;;;;;;42.30;24.00;;;;;;5033003;28;20389;-75
2023/08/22 08:42:10;;;;;;;;;;;42.10;24.30;;;;;;5034269;28;19913;-77
2023/08/22 08:44:36;;;;;;;;;;;41.80;24.30;;;;;;5032898;28;19988;-76
2023/08/22 08:47:02;;;;;;;;;;;41.40;24.30;;;;;;5033931;28;19910;-76
2023/08/22 08:49:30;;;;;;;;;;;41.00;24.40;;;;;;5031578;28;19998;-75
2023/08/22 08:51:57;;;;;;;;;;;40.90;25.00;;;;;;5033747;28;19910;-75
2023/08/22 08:54:23;;;;;;;;;;;41.00;25.40;;;;;;5033498;28;19924;-76
2023/08/22 08:56:49;;;;;;;;;;;41.30;25.50;;;;;;5032408;28;19919;-75
2023/08/22 08:59:14;;;;;;;;;;;41.60;25.60;;;;;;5033450;28;20019;-76
2023/08/22 09:01:42;;;;;;;;;;;41.60;25.20;;;;;;5032512;28;19913;-76
2023/08/22 09:04:08;;;;;;;;;;;41.70;25.00;;;;;;5033384;28;19913;-76
2023/08/22 09:06:33;;;;;;;;;;;41.80;24.70;;;;;;5033378;28;19940;-74
2023/08/22 09:09:08;;;;;;;;;;;41.80;24.40;;;;;;5031199;28;19975;-76
2023/08/22 09:11:40;;;;;;;;;;;41.80;24.10;;;;;;5032563;28;19999;-76
2023/08/22 09:14:06;;;;;;;;;;;41.60;24.20;;;;;;5033669;28;19917;-76
2023/08/22 09:16:31;;;;;;;;;;;41.50;24.30;;;;;;5033414;28;19914;-75
2023/08/22 09:18:59;;;;;;;;;;;41.40;24.70;;;;;;5032095;28;19913;-75
2023/08/22 09:21:24;;;;;;;;;;;41.50;24.90;;;;;;5033009;28;20007;-75
2023/08/22 09:23:49;;;;;;;;;;;41.50;24.90;;;;;;5031845;28;20007;-77
2023/08/22 09:26:19;;;;;;;;;;;41.50;24.80;;;;;;5033132;28;19956;-77
2023/08/22 09:28:45;;;;;;;;;;;41.50;24.90;;;;;;5033368;28;19917;-75
2023/08/22 09:31:20;;;;;;;;;;;41.50;24.90;;;;;;5033037;28;19920;-74
2023/08/22 09:33:46;;;;;;;;;;;41.50;24.80;;;;;;5032109;28;19917;-76
2023/08/22 09:36:11;;;;;;;;;;;41.50;25.00;;;;;;5032885;28;19920;-74
2023/08/22 09:38:56;;;;;;;;;;;41.70;25.00;;;;;;5032297;28;19936;-75
2023/08/22 09:41:23;;;;;;;;;;;41.90;25.00;;;;;;5030961;28;19944;-75
2023/08/22 09:43:51;;;;;;;;;;;42.20;24.50;;;;;;5033090;28;19913;-78
2023/08/22 09:46:17;;;;;;;;;;;42.30;23.80;;;;;;5031223;28;20004;-76
2023/08/22 09:48:43;;;;;;;;;;;42.10;23.60;;;;;;5030300;28;20047;-77
2023/08/22 09:51:09;;;;;;;;;;;41.90;23.20;;;;;;5031770;28;20012;-74
2023/08/22 09:53:36;;;;;;;;;;;41.70;23.10;;;;;;5030972;28;20391;-76
2023/08/22 09:56:02;;;;;;;;;;;41.50;23.30;;;;;;5032851;28;20266;-75
2023/08/22 09:58:28;;;;;;;;;;;41.20;23.20;;;;;;5032782;28;19942;-75
2023/08/22 10:00:55;;;;;;;;;;;41.00;23.80;;;;;;5031201;28;19921;-76
2023/08/22 10:03:21;;;;;;;;;;;41.00;24.10;;;;;;5032803;28;20269;-75
2023/08/22 10:05:51;;;;;;;;;;;41.00;23.80;;;;;;5031391;28;20436;-76
2023/08/22 10:08:16;;;;;;;;;;;40.80;23.90;;;;;;5032796;28;19939;-75
2023/08/22 10:10:43;;;;;;;;;;;40.80;24.10;;;;;;5031840;28;19928;-76
2023/08/22 10:13:09;;;;;;;;;;;40.70;24.00;;;;;;5033347;28;19920;-75
2023/08/22 10:15:36;;;;;;;;;;;40.60;24.50;;;;;;5032740;28;20360;-75
2023/08/22 10:18:02;;;;;;;;;;;40.60;24.60;;;;;;5030861;28;19917;-77
2023/08/22 10:20:27;;;;;;;;;;;40.60;24.70;;;;;;5032027;28;19924;-75
2023/08/22 10:22:53;;;;;;;;;;;40.50;24.70;;;;;;5029991;28;20000;-76
2023/08/22 10:25:18;;;;;;;;;;;40.40;24.50;;;;;;5032219;28;19914;-76
2023/08/22 10:27:48;;;;;;;;;;;40.40;24.80;;;;;;5032174;28;20395;-75
2023/08/22 10:30:13;;;;;;;;;;;40.40;25.00;;;;;;5031265;28;20348;-75
2023/08/22 10:32:39;;;;;;;;;;;40.50;25.00;;;;;;5031555;28;20003;-75
2023/08/22 10:35:14;;;;;;;;;;;40.60;24.90;;;;;;5030573;28;20012;-76
2023/08/22 10:37:46;;;;;;;;;;;40.50;24.30;;;;;;5032701;28;20027;-74
2023/08/22 10:40:19;;;;;;;;;;;40.40;24.50;;;;;;5030451;28;19975;-74
2023/08/22 10:42:49;;;;;;;;;;;40.30;24.70;;;;;;5031739;28;19917;-75
2023/08/22 10:45:15;;;;;;;;;;;40.30;24.70;;;;;;5031278;28;19922;-71
2023/08/22 10:47:41;;;;;;;;;;;40.30;24.50;;;;;;5032085;28;19917;-75
2023/08/22 10:50:11;;;;;;;;;;;40.30;24.60;;;;;;5030916;28;19928;-75
2023/08/22 10:52:38;;;;;;;;;;;40.20;24.70;;;;;;5031862;28;19970;-75
2023/08/22 10:55:09;;;;;;;;;;;40.20;24.80;;;;;;5031671;28;19917;-74
2023/08/22 10:57:43;;;;;;;;;;;40.20;24.50;;;;;;5030477;28;19917;-75
2023/08/22 11:00:18;;;;;;;;;;;40.00;24.60;;;;;;5030725;28;19917;-76
2023/08/22 11:02:44;;;;;;;;;;;39.90;24.70;;;;;;5035317;28;20005;-75
2023/08/22 11:05:11;;;;;;;;;;;39.90;24.50;;;;;;5036699;28;19918;-75
2023/08/22 11:07:37;;;;;;;;;;;39.80;24.40;;;;;;5036867;28;19913;-75
2023/08/22 11:10:06;;;;;;;;;;;39.80;24.90;;;;;;5037122;28;19917;-75
2023/08/22 11:12:31;;;;;;;;;;;39.90;24.90;;;;;;5038302;28;19924;-75
2023/08/22 11:14:57;;;;;;;;;;;39.80;24.60;;;;;;5036220;28;19917;-75
2023/08/22 11:17:24;;;;;;;;;;;39.80;24.50;;;;;;5036807;28;19924;-75
2023/08/22 11:19:51;;;;;;;;;;;39.80;24.60;;;;;;5036923;28;19917;-74
2023/08/22 11:22:17;;;;;;;;;;;40.00;24.40;;;;;;5038219;28;19920;-75
2023/08/22 11:24:43;;;;;;;;;;;40.10;24.20;;;;;;5036572;28;20003;-75
2023/08/22 11:27:08;;;;;;;;;;;40.10;23.90;;;;;;5038146;28;19967;-74
2023/08/22 11:29:42;;;;;;;;;;;40.10;23.90;;;;;;5036025;28;20384;-75
2023/08/22 11:32:19;;;;;;;;;;;40.10;24.10;;;;;;5037995;28;19917;-75
2023/08/22 11:34:46;;;;;;;;;;;40.20;23.90;;;;;;5037271;28;19921;-75
2023/08/22 11:37:12;;;;;;;;;;;40.20;24.10;;;;;;5038112;28;19956;-74
2023/08/22 11:39:37;;;;;;;;;;;40.20;24.10;;;;;;5036635;28;19979;-74
2023/08/22 11:42:03;;;;;;;;;;;40.20;24.10;;;;;;5037163;28;19913;-75
2023/08/22 11:44:28;;;;;;;;;;;40.20;23.70;;;;;;5038213;28;19917;-75
2023/08/22 11:46:53;;;;;;;;;;;40.10;23.90;;;;;;5037448;28;20373;-75
2023/08/22 11:49:19;;;;;;;;;;;39.90;23.70;;;;;;5038079;28;19921;-75
2023/08/22 11:51:45;;;;;;;;;;;39.70;24.10;;;;;;5037172;28;19917;-75
2023/08/22 11:54:21;;;;;;;;;;;39.50;24.10;;;;;;5038681;28;19928;-74
2023/08/22 11:56:47;;;;;;;;;;;39.30;24.40;;;;;;5038058;28;20419;-75
2023/08/22 11:59:13;;;;;;;;;;;39.30;24.60;;;;;;5036534;28;19964;-75
2023/08/22 12:01:39;;;;;;;;;;;39.40;24.80;;;;;;5037801;28;19913;-75
2023/08/22 12:04:06;;;;;;;;;;;39.40;24.90;;;;;;5036871;28;20435;-75
2023/08/22 12:06:31;;;;;;;;;;;39.40;24.90;;;;;;5037797;28;19913;-73
2023/08/22 12:08:59;;;;;;;;;;;39.30;25.10;;;;;;5038589;28;20288;-77
2023/08/22 12:11:25;;;;;;;;;;;39.30;25.40;;;;;;5037172;28;19921;-73
2023/08/22 12:13:51;;;;;;;;;;;39.20;25.40;;;;;;5035854;28;20404;-74
2023/08/22 12:16:16;;;;;;;;;;;39.30;25.20;;;;;;5034700;28;19923;-75
2023/08/22 12:18:42;;;;;;;;;;;39.30;25.20;;;;;;5033504;28;20391;-74
2023/08/22 12:21:08;;;;;;;;;;;39.30;25.20;;;;;;5033942;28;20007;-75
2023/08/22 12:23:33;;;;;;;;;;;39.50;24.80;;;;;;5035362;28;19939;-75
2023/08/22 12:25:58;;;;;;;;;;;39.60;24.80;;;;;;5033576;28;19920;-76
2023/08/22 12:28:24;;;;;;;;;;;39.70;24.70;;;;;;5023216;28;19924;-75
2023/08/22 12:30:49;;;;;;;;;;;39.80;24.60;;;;;;5014487;28;19914;-75
2023/08/22 12:33:16;;;;;;;;;;;40.00;24.00;;;;;;5015203;28;20404;-75
2023/08/22 12:35:43;;;;;;;;;;;40.00;24.10;;;;;;5034266;28;20007;-74
2023/08/22 12:38:08;;;;;;;;;;;40.00;23.80;;;;;;5034597;28;20410;-76
2023/08/22 12:40:34;;;;;;;;;;;40.00;24.20;;;;;;5033402;28;19921;-75
2023/08/22 12:42:59;;;;;;;;;;;40.00;24.30;;;;;;5034464;28;20003;-75
2023/08/22 12:45:25;;;;;;;;;;;40.10;24.10;;;;;;5032804;28;19921;-75
2023/08/22 12:47:50;;;;;;;;;;;40.20;24.20;;;;;;5034334;28;19920;-76
2023/08/22 12:50:16;;;;;;;;;;;40.20;24.10;;;;;;5033727;28;20388;-76
2023/08/22 12:52:42;;;;;;;;;;;40.20;24.20;;;;;;5032435;28;20284;-74
2023/08/22 12:55:08;;;;;;;;;;;40.30;23.90;;;;;;5034174;28;19913;-75
2023/08/22 12:57:34;;;;;;;;;;;40.20;23.50;;;;;;5032394;28;19980;-76
2023/08/22 12:59:59;;;;;;;;;;;40.10;23.70;;;;;;5033533;28;19960;-75
2023/08/22 13:02:25;;;;;;;;;;;40.00;23.20;;;;;;5033717;28;19956;-74
2023/08/22 13:04:50;;;;;;;;;;;39.60;23.50;;;;;;5032111;28;19917;-73
2023/08/22 13:07:16;;;;;;;;;;;39.50;24.00;;;;;;5032613;28;20367;-74
2023/08/22 13:09:41;;;;;;;;;;;39.50;24.10;;;;;;5031813;28;19917;-72
2023/08/22 13:12:07;;;;;;;;;;;39.60;24.20;;;;;;5032001;28;19917;-75
2023/08/22 13:14:33;;;;;;;;;;;39.70;23.90;;;;;;5033294;28;20372;-74
2023/08/22 13:16:59;;;;;;;;;;;39.60;24.20;;;;;;5031804;28;19920;-75
2023/08/22 13:19:24;;;;;;;;;;;39.70;24.30;;;;;;5033432;28;20395;-75
2023/08/22 13:21:49;;;;;;;;;;;39.80;24.60;;;;;;5032970;28;20007;-66
2023/08/22 13:24:15;;;;;;;;;;;39.90;24.50;;;;;;5031720;28;19917;-67
2023/08/22 13:26:41;;;;;;;;;;;39.80;24.00;;;;;;5032190;28;19913;-67
2023/08/22 13:29:06;;;;;;;;;;;39.50;24.20;;;;;;5032049;28;19935;-67
2023/08/22 13:31:31;;;;;;;;;;;39.40;24.30;;;;;;5032852;28;19956;-67
2023/08/22 13:33:57;;;;;;;;;;;39.30;24.60;;;;;;5033262;28;19917;-66
2023/08/22 13:36:22;;;;;;;;;;;39.20;24.80;;;;;;5031920;28;19921;-66
2023/08/22 13:38:48;;;;;;;;;;;39.00;24.80;;;;;;5032849;28;19966;-67
2023/08/22 13:41:14;;;;;;;;;;;39.00;25.00;;;;;;5031866;28;19921;-67
2023/08/22 13:43:39;;;;;;;;;;;38.90;25.10;;;;;;5031573;28;19972;-67
2023/08/22 13:46:05;;;;;;;;;;;38.80;25.10;;;;;;5031952;28;20300;-66
2023/08/22 13:48:31;;;;;;;;;;;38.70;25.30;;;;;;5032526;28;20007;-66
2023/08/22 13:50:57;;;;;;;;;;;38.60;25.50;;;;;;5032473;28;20373;-67
2023/08/22 13:53:22;;;;;;;;;;;38.40;25.50;;;;;;5031299;28;20026;-67
2023/08/22 13:55:48;;;;;;;;;;;38.20;25.70;;;;;;5032529;28;20387;-68
2023/08/22 13:58:13;;;;;;;;;;;38.20;26.00;;;;;;5030905;28;20364;-66
2023/08/22 14:00:39;;;;;;;;;;;38.20;26.20;;;;;;5032314;28;19928;-67
2023/08/22 14:03:04;;;;;;;;;;;38.30;25.90;;;;;;5031966;28;19944;-69
2023/08/22 14:05:30;;;;;;;;;;;38.20;25.90;;;;;;5032232;28;19913;-67
2023/08/22 14:07:55;;;;;;;;;;;38.00;26.00;;;;;;5028470;28;19920;-67
2023/08/22 14:10:23;;;;;;;;;;;37.70;26.20;;;;;;5032361;28;19934;-67